sensor_id;sensor_type;location;lat;lon;timestamp;temperature;humidity
68924;DHT22;55961;52.156;20.942;2023-05-27T00:00:41;12.90;52.10
68924;DHT22;55961;52.156;20.942;2023-05-27T00:03:25;12.90;52.30
68924;DHT22;55961;52.156;20.942;2023-05-27T00:05:51;12.80;52.50
68924;DHT22;55961;52.156;20.942;2023-05-27T00:08:17;12.80;52.60
68924;DHT22;55961;52.156;20.942;2023-05-27T00:10:43;12.70;52.90
68924;DHT22;55961;52.156;20.942;2023-05-27T00:13:11;12.70;53.10
68924;DHT22;55961;52.156;20.942;2023-05-27T00:15:39;12.70;53.20
68924;DHT22;55961;52.156;20.942;2023-05-27T00:18:06;12.60;53.50
68924;DHT22;55961;52.156;20.942;2023-05-27T00:20:32;12.60;53.70
68924;DHT22;55961;52.156;20.942;2023-05-27T00:22:58;12.50;53.70
68924;DHT22;55961;52.156;20.942;2023-05-27T00:25:27;12.50;54.00
68924;DHT22;55961;52.156;20.942;2023-05-27T00:27:54;12.50;54.10
68924;DHT22;55961;52.156;20.942;2023-05-27T00:30:20;12.40;54.40
68924;DHT22;55961;52.156;20.942;2023-05-27T00:32:46;12.40;54.70
68924;DHT22;55961;52.156;20.942;2023-05-27T00:35:12;12.30;54.90
68924;DHT22;55961;52.156;20.942;2023-05-27T00:37:38;12.30;55.00
68924;DHT22;55961;52.156;20.942;2023-05-27T00:40:05;12.20;55.30
68924;DHT22;55961;52.156;20.942;2023-05-27T00:42:33;12.20;55.30
68924;DHT22;55961;52.156;20.942;2023-05-27T00:44:58;12.10;55.60
68924;DHT22;55961;52.156;20.942;2023-05-27T00:47:26;12.10;55.70
68924;DHT22;55961;52.156;20.942;2023-05-27T00:49:54;12.10;56.00
68924;DHT22;55961;52.156;20.942;2023-05-27T00:52:21;12.10;56.20
68924;DHT22;55961;52.156;20.942;2023-05-27T00:54:47;12.10;56.10
68924;DHT22;55961;52.156;20.942;2023-05-27T00:57:13;12.00;56.30
68924;DHT22;55961;52.156;20.942;2023-05-27T00:59:39;12.00;56.30
68924;DHT22;55961;52.156;20.942;2023-05-27T01:02:05;12.00;56.40
68924;DHT22;55961;52.156;20.942;2023-05-27T01:04:31;11.90;56.80
68924;DHT22;55961;52.156;20.942;2023-05-27T01:15:23;11.80;57.20
68924;DHT22;55961;52.156;20.942;2023-05-27T01:17:55;11.80;57.40
68924;DHT22;55961;52.156;20.942;2023-05-27T01:20:23;11.70;57.50
68924;DHT22;55961;52.156;20.942;2023-05-27T01:22:49;11.70;57.70
68924;DHT22;55961;52.156;20.942;2023-05-27T01:25:17;11.70;57.70
68924;DHT22;55961;52.156;20.942;2023-05-27T01:27:45;11.60;57.80
68924;DHT22;55961;52.156;20.942;2023-05-27T01:30:11;11.60;58.00
68924;DHT22;55961;52.156;20.942;2023-05-27T01:37:45;11.50;58.30
68924;DHT22;55961;52.156;20.942;2023-05-27T01:40:13;11.40;58.40
68924;DHT22;55961;52.156;20.942;2023-05-27T01:42:40;11.40;58.60
68924;DHT22;55961;52.156;20.942;2023-05-27T01:45:08;11.40;58.60
68924;DHT22;55961;52.156;20.942;2023-05-27T01:47:34;11.40;58.90
68924;DHT22;55961;52.156;20.942;2023-05-27T01:50:00;11.30;59.00
68924;DHT22;55961;52.156;20.942;2023-05-27T01:52:27;11.30;59.20
68924;DHT22;55961;52.156;20.942;2023-05-27T01:54:52;11.20;59.20
68924;DHT22;55961;52.156;20.942;2023-05-27T01:57:19;11.20;59.50
68924;DHT22;55961;52.156;20.942;2023-05-27T01:59:45;11.20;59.50
68924;DHT22;55961;52.156;20.942;2023-05-27T02:02:12;11.20;59.50
68924;DHT22;55961;52.156;20.942;2023-05-27T02:04:38;11.20;59.60
68924;DHT22;55961;52.156;20.942;2023-05-27T02:07:04;11.10;59.70
68924;DHT22;55961;52.156;20.942;2023-05-27T02:09:31;11.10;59.80
68924;DHT22;55961;52.156;20.942;2023-05-27T02:11:57;11.10;60.00
68924;DHT22;55961;52.156;20.942;2023-05-27T02:14:23;11.10;60.00
68924;DHT22;55961;52.156;20.942;2023-05-27T02:16:49;11.00;59.80
68924;DHT22;55961;52.156;20.942;2023-05-27T02:19:16;11.00;59.80
68924;DHT22;55961;52.156;20.942;2023-05-27T02:21:43;11.00;59.80
68924;DHT22;55961;52.156;20.942;2023-05-27T02:24:08;10.90;59.80
68924;DHT22;55961;52.156;20.942;2023-05-27T02:26:34;10.90;59.90
68924;DHT22;55961;52.156;20.942;2023-05-27T02:29:00;10.80;60.00
68924;DHT22;55961;52.156;20.942;2023-05-27T02:31:27;10.70;60.20
68924;DHT22;55961;52.156;20.942;2023-05-27T02:33:52;10.60;60.50
68924;DHT22;55961;52.156;20.942;2023-05-27T02:36:18;10.60;60.70
68924;DHT22;55961;52.156;20.942;2023-05-27T02:38:46;10.50;61.00
68924;DHT22;55961;52.156;20.942;2023-05-27T02:41:12;10.40;61.20
68924;DHT22;55961;52.156;20.942;2023-05-27T02:43:38;10.40;61.50
68924;DHT22;55961;52.156;20.942;2023-05-27T02:46:04;10.30;61.70
68924;DHT22;55961;52.156;20.942;2023-05-27T02:48:30;10.30;61.90
68924;DHT22;55961;52.156;20.942;2023-05-27T02:50:56;10.20;62.30
68924;DHT22;55961;52.156;20.942;2023-05-27T02:53:22;10.20;62.50
68924;DHT22;55961;52.156;20.942;2023-05-27T02:55:49;10.10;62.80
68924;DHT22;55961;52.156;20.942;2023-05-27T02:58:15;10.00;63.00
68924;DHT22;55961;52.156;20.942;2023-05-27T03:00:41;10.00;63.30
68924;DHT22;55961;52.156;20.942;2023-05-27T03:03:07;9.90;63.60
68924;DHT22;55961;52.156;20.942;2023-05-27T03:05:34;9.90;63.60
68924;DHT22;55961;52.156;20.942;2023-05-27T03:08:01;9.90;63.60
68924;DHT22;55961;52.156;20.942;2023-05-27T03:10:27;9.80;63.90
68924;DHT22;55961;52.156;20.942;2023-05-27T03:12:54;9.80;64.00
68924;DHT22;55961;52.156;20.942;2023-05-27T03:15:21;9.80;64.40
68924;DHT22;55961;52.156;20.942;2023-05-27T03:17:47;9.80;64.50
68924;DHT22;55961;52.156;20.942;2023-05-27T03:20:13;9.80;64.80
68924;DHT22;55961;52.156;20.942;2023-05-27T03:22:39;9.80;64.80
68924;DHT22;55961;52.156;20.942;2023-05-27T03:25:05;9.80;65.00
68924;DHT22;55961;52.156;20.942;2023-05-27T03:27:32;9.80;65.20
68924;DHT22;55961;52.156;20.942;2023-05-27T03:29:58;9.80;65.50
68924;DHT22;55961;52.156;20.942;2023-05-27T03:32:24;9.80;65.60
68924;DHT22;55961;52.156;20.942;2023-05-27T03:34:50;9.80;65.80
68924;DHT22;55961;52.156;20.942;2023-05-27T03:37:16;9.90;65.90
68924;DHT22;55961;52.156;20.942;2023-05-27T03:39:42;9.90;65.80
68924;DHT22;55961;52.156;20.942;2023-05-27T03:42:09;9.90;66.00
68924;DHT22;55961;52.156;20.942;2023-05-27T03:44:35;9.90;66.10
68924;DHT22;55961;52.156;20.942;2023-05-27T03:47:04;9.90;66.10
68924;DHT22;55961;52.156;20.942;2023-05-27T03:49:31;10.00;66.10
68924;DHT22;55961;52.156;20.942;2023-05-27T03:51:57;9.90;66.30
68924;DHT22;55961;52.156;20.942;2023-05-27T03:54:23;10.00;66.70
68924;DHT22;55961;52.156;20.942;2023-05-27T03:56:48;10.00;67.00
68924;DHT22;55961;52.156;20.942;2023-05-27T03:59:14;10.10;67.00
68924;DHT22;55961;52.156;20.942;2023-05-27T04:01:40;10.10;67.10
68924;DHT22;55961;52.156;20.942;2023-05-27T04:04:07;10.10;67.30
68924;DHT22;55961;52.156;20.942;2023-05-27T04:06:32;10.20;67.20
68924;DHT22;55961;52.156;20.942;2023-05-27T04:08:59;10.20;67.30
68924;DHT22;55961;52.156;20.942;2023-05-27T04:11:27;10.30;67.20
68924;DHT22;55961;52.156;20.942;2023-05-27T04:13:53;10.30;67.20
68924;DHT22;55961;52.156;20.942;2023-05-27T04:16:20;10.40;67.20
68924;DHT22;55961;52.156;20.942;2023-05-27T04:18:47;10.40;67.10
68924;DHT22;55961;52.156;20.942;2023-05-27T04:21:15;10.50;67.00
68924;DHT22;55961;52.156;20.942;2023-05-27T04:23:41;10.50;67.00
68924;DHT22;55961;52.156;20.942;2023-05-27T04:26:07;10.60;66.90
68924;DHT22;55961;52.156;20.942;2023-05-27T04:28:33;10.70;66.90
68924;DHT22;55961;52.156;20.942;2023-05-27T04:31:01;10.80;66.90
68924;DHT22;55961;52.156;20.942;2023-05-27T04:33:27;10.80;66.80
68924;DHT22;55961;52.156;20.942;2023-05-27T04:35:53;10.90;66.60
68924;DHT22;55961;52.156;20.942;2023-05-27T04:38:20;11.00;66.40
68924;DHT22;55961;52.156;20.942;2023-05-27T04:40:47;11.00;66.40
68924;DHT22;55961;52.156;20.942;2023-05-27T04:43:19;11.10;66.10
68924;DHT22;55961;52.156;20.942;2023-05-27T04:45:45;11.20;66.10
68924;DHT22;55961;52.156;20.942;2023-05-27T04:48:12;11.30;65.80
68924;DHT22;55961;52.156;20.942;2023-05-27T04:50:38;11.40;65.50
68924;DHT22;55961;52.156;20.942;2023-05-27T04:53:05;11.50;65.20
68924;DHT22;55961;52.156;20.942;2023-05-27T04:55:30;11.60;65.30
68924;DHT22;55961;52.156;20.942;2023-05-27T04:57:57;11.70;64.80
68924;DHT22;55961;52.156;20.942;2023-05-27T05:00:22;11.70;64.70
68924;DHT22;55961;52.156;20.942;2023-05-27T05:03:05;11.80;64.10
68924;DHT22;55961;52.156;20.942;2023-05-27T05:05:32;11.90;63.60
68924;DHT22;55961;52.156;20.942;2023-05-27T05:07:59;12.00;63.30
68924;DHT22;55961;52.156;20.942;2023-05-27T05:10:25;12.10;63.30
68924;DHT22;55961;52.156;20.942;2023-05-27T05:12:51;12.20;63.20
68924;DHT22;55961;52.156;20.942;2023-05-27T05:15:17;12.30;63.30
68924;DHT22;55961;52.156;20.942;2023-05-27T05:17:43;12.50;62.60
68924;DHT22;55961;52.156;20.942;2023-05-27T05:20:10;12.60;62.00
68924;DHT22;55961;52.156;20.942;2023-05-27T05:22:36;12.70;61.60
68924;DHT22;55961;52.156;20.942;2023-05-27T05:25:02;12.80;61.20
68924;DHT22;55961;52.156;20.942;2023-05-27T05:27:29;12.90;61.00
68924;DHT22;55961;52.156;20.942;2023-05-27T05:29:55;13.00;60.70
68924;DHT22;55961;52.156;20.942;2023-05-27T05:32:21;13.10;60.40
68924;DHT22;55961;52.156;20.942;2023-05-27T05:34:47;13.20;59.70
68924;DHT22;55961;52.156;20.942;2023-05-27T05:37:13;13.40;59.30
68924;DHT22;55961;52.156;20.942;2023-05-27T05:39:41;13.50;59.00
68924;DHT22;55961;52.156;20.942;2023-05-27T05:42:08;13.50;58.70
68924;DHT22;55961;52.156;20.942;2023-05-27T05:44:34;13.70;58.40
68924;DHT22;55961;52.156;20.942;2023-05-27T05:47:00;13.70;58.30
68924;DHT22;55961;52.156;20.942;2023-05-27T05:49:26;13.90;57.60
68924;DHT22;55961;52.156;20.942;2023-05-27T05:51:52;14.00;57.20
68924;DHT22;55961;52.156;20.942;2023-05-27T05:54:18;14.10;57.00
68924;DHT22;55961;52.156;20.942;2023-05-27T05:56:44;14.20;56.70
68924;DHT22;55961;52.156;20.942;2023-05-27T05:59:10;14.30;56.70
68924;DHT22;55961;52.156;20.942;2023-05-27T06:01:36;14.40;56.50
68924;DHT22;55961;52.156;20.942;2023-05-27T06:04:02;14.50;55.90
68924;DHT22;55961;52.156;20.942;2023-05-27T06:06:30;14.60;55.30
68924;DHT22;55961;52.156;20.942;2023-05-27T06:08:56;14.80;54.60
68924;DHT22;55961;52.156;20.942;2023-05-27T06:11:22;14.90;54.40
68924;DHT22;55961;52.156;20.942;2023-05-27T06:13:48;15.00;54.20
68924;DHT22;55961;52.156;20.942;2023-05-27T06:16:14;15.10;54.20
68924;DHT22;55961;52.156;20.942;2023-05-27T06:18:40;15.20;53.60
68924;DHT22;55961;52.156;20.942;2023-05-27T06:21:06;15.30;53.60
68924;DHT22;55961;52.156;20.942;2023-05-27T06:23:32;15.40;53.00
68924;DHT22;55961;52.156;20.942;2023-05-27T06:25:58;15.60;52.70
68924;DHT22;55961;52.156;20.942;2023-05-27T06:28:24;15.70;52.10
68924;DHT22;55961;52.156;20.942;2023-05-27T06:30:51;15.80;51.60
68924;DHT22;55961;52.156;20.942;2023-05-27T06:33:17;15.90;52.40
68924;DHT22;55961;52.156;20.942;2023-05-27T06:35:43;16.10;51.20
68924;DHT22;55961;52.156;20.942;2023-05-27T06:38:09;16.20;50.80
68924;DHT22;55961;52.156;20.942;2023-05-27T06:40:35;16.40;51.20
68924;DHT22;55961;52.156;20.942;2023-05-27T06:43:01;16.50;50.00
68924;DHT22;55961;52.156;20.942;2023-05-27T06:45:27;16.60;49.50
68924;DHT22;55961;52.156;20.942;2023-05-27T06:47:53;16.70;50.10
68924;DHT22;55961;52.156;20.942;2023-05-27T06:50:19;16.90;48.70
68924;DHT22;55961;52.156;20.942;2023-05-27T06:52:45;17.00;48.30
68924;DHT22;55961;52.156;20.942;2023-05-27T06:55:11;17.10;48.60
68924;DHT22;55961;52.156;20.942;2023-05-27T06:57:37;17.20;47.30
68924;DHT22;55961;52.156;20.942;2023-05-27T07:00:03;17.30;47.00
68924;DHT22;55961;52.156;20.942;2023-05-27T07:02:30;17.40;46.80
68924;DHT22;55961;52.156;20.942;2023-05-27T07:04:57;17.50;46.90
68924;DHT22;55961;52.156;20.942;2023-05-27T07:07:22;17.60;46.40
68924;DHT22;55961;52.156;20.942;2023-05-27T07:09:48;17.80;46.20
68924;DHT22;55961;52.156;20.942;2023-05-27T07:12:14;17.90;46.40
68924;DHT22;55961;52.156;20.942;2023-05-27T07:14:40;18.00;45.90
68924;DHT22;55961;52.156;20.942;2023-05-27T07:17:06;18.20;46.40
68924;DHT22;55961;52.156;20.942;2023-05-27T07:19:33;18.40;45.90
68924;DHT22;55961;52.156;20.942;2023-05-27T07:21:58;18.50;44.50
68924;DHT22;55961;52.156;20.942;2023-05-27T07:24:24;18.70;43.90
68924;DHT22;55961;52.156;20.942;2023-05-27T07:26:51;18.80;43.20
68924;DHT22;55961;52.156;20.942;2023-05-27T07:29:17;19.00;43.10
68924;DHT22;55961;52.156;20.942;2023-05-27T07:31:42;19.10;42.90
68924;DHT22;55961;52.156;20.942;2023-05-27T07:34:09;19.20;42.90
68924;DHT22;55961;52.156;20.942;2023-05-27T07:36:34;19.30;42.90
68924;DHT22;55961;52.156;20.942;2023-05-27T07:39:01;19.50;42.70
68924;DHT22;55961;52.156;20.942;2023-05-27T07:41:27;19.60;41.80
68924;DHT22;55961;52.156;20.942;2023-05-27T07:43:56;19.70;41.70
68924;DHT22;55961;52.156;20.942;2023-05-27T07:46:22;19.80;40.60
68924;DHT22;55961;52.156;20.942;2023-05-27T07:48:48;19.90;41.00
68924;DHT22;55961;52.156;20.942;2023-05-27T07:51:14;20.10;41.10
68924;DHT22;55961;52.156;20.942;2023-05-27T07:53:40;20.20;40.50
68924;DHT22;55961;52.156;20.942;2023-05-27T07:56:06;20.40;39.90
68924;DHT22;55961;52.156;20.942;2023-05-27T07:58:32;20.50;39.70
68924;DHT22;55961;52.156;20.942;2023-05-27T08:00:57;20.60;38.80
68924;DHT22;55961;52.156;20.942;2023-05-27T08:03:23;20.70;38.20
68924;DHT22;55961;52.156;20.942;2023-05-27T08:05:49;20.80;37.70
68924;DHT22;55961;52.156;20.942;2023-05-27T08:08:15;20.90;37.90
68924;DHT22;55961;52.156;20.942;2023-05-27T08:10:41;21.00;37.70
68924;DHT22;55961;52.156;20.942;2023-05-27T08:13:07;21.10;37.50
68924;DHT22;55961;52.156;20.942;2023-05-27T08:15:33;21.20;36.90
68924;DHT22;55961;52.156;20.942;2023-05-27T08:17:59;21.30;37.10
68924;DHT22;55961;52.156;20.942;2023-05-27T08:20:25;21.40;37.60
68924;DHT22;55961;52.156;20.942;2023-05-27T08:22:51;21.60;36.80
68924;DHT22;55961;52.156;20.942;2023-05-27T08:25:17;21.70;36.50
68924;DHT22;55961;52.156;20.942;2023-05-27T08:30:13;21.80;36.00
68924;DHT22;55961;52.156;20.942;2023-05-27T08:32:40;21.80;35.90
68924;DHT22;55961;52.156;20.942;2023-05-27T08:35:07;21.90;35.90
68924;DHT22;55961;52.156;20.942;2023-05-27T08:37:33;21.90;35.50
68924;DHT22;55961;52.156;20.942;2023-05-27T08:39:59;22.00;34.80
68924;DHT22;55961;52.156;20.942;2023-05-27T08:42:25;22.00;35.00
68924;DHT22;55961;52.156;20.942;2023-05-27T08:44:51;22.10;35.10
68924;DHT22;55961;52.156;20.942;2023-05-27T08:47:17;22.10;34.80
68924;DHT22;55961;52.156;20.942;2023-05-27T08:49:44;22.20;34.50
68924;DHT22;55961;52.156;20.942;2023-05-27T08:52:11;22.30;34.60
68924;DHT22;55961;52.156;20.942;2023-05-27T08:54:41;22.40;35.00
68924;DHT22;55961;52.156;20.942;2023-05-27T08:57:09;22.40;34.30
68924;DHT22;55961;52.156;20.942;2023-05-27T08:59:39;22.50;33.60
68924;DHT22;55961;52.156;20.942;2023-05-27T09:02:12;22.60;33.80
68924;DHT22;55961;52.156;20.942;2023-05-27T09:04:42;22.60;34.10
68924;DHT22;55961;52.156;20.942;2023-05-27T09:07:08;22.80;33.80
68924;DHT22;55961;52.156;20.942;2023-05-27T09:09:34;22.90;33.40
68924;DHT22;55961;52.156;20.942;2023-05-27T09:12:04;23.00;33.00
68924;DHT22;55961;52.156;20.942;2023-05-27T09:14:32;23.00;32.70
68924;DHT22;55961;52.156;20.942;2023-05-27T09:17:05;23.10;31.90
68924;DHT22;55961;52.156;20.942;2023-05-27T09:19:31;23.20;31.30
68924;DHT22;55961;52.156;20.942;2023-05-27T09:21:57;23.30;31.50
68924;DHT22;55961;52.156;20.942;2023-05-27T09:24:23;23.40;31.10
68924;DHT22;55961;52.156;20.942;2023-05-27T09:26:53;23.50;30.90
68924;DHT22;55961;52.156;20.942;2023-05-27T09:29:19;23.50;31.50
68924;DHT22;55961;52.156;20.942;2023-05-27T09:31:45;23.60;30.70
68924;DHT22;55961;52.156;20.942;2023-05-27T09:34:15;23.70;31.40
68924;DHT22;55961;52.156;20.942;2023-05-27T09:36:46;23.70;30.80
68924;DHT22;55961;52.156;20.942;2023-05-27T09:39:13;23.80;30.50
68924;DHT22;55961;52.156;20.942;2023-05-27T09:41:41;23.90;30.70
68924;DHT22;55961;52.156;20.942;2023-05-27T09:44:08;24.00;30.40
68924;DHT22;55961;52.156;20.942;2023-05-27T09:46:35;24.10;30.00
68924;DHT22;55961;52.156;20.942;2023-05-27T09:49:02;24.20;30.30
68924;DHT22;55961;52.156;20.942;2023-05-27T09:51:30;24.40;29.20
68924;DHT22;55961;52.156;20.942;2023-05-27T09:53:58;24.40;28.10
68924;DHT22;55961;52.156;20.942;2023-05-27T09:56:25;24.50;29.10
68924;DHT22;55961;52.156;20.942;2023-05-27T09:58:55;24.60;29.30
68924;DHT22;55961;52.156;20.942;2023-05-27T10:01:25;24.80;29.50
68924;DHT22;55961;52.156;20.942;2023-05-27T10:03:54;24.90;28.80
68924;DHT22;55961;52.156;20.942;2023-05-27T10:06:22;25.10;28.00
68924;DHT22;55961;52.156;20.942;2023-05-27T10:08:49;25.20;27.60
68924;DHT22;55961;52.156;20.942;2023-05-27T10:11:18;25.40;27.60
68924;DHT22;55961;52.156;20.942;2023-05-27T10:13:45;25.50;27.40
68924;DHT22;55961;52.156;20.942;2023-05-27T10:16:26;25.60;27.30
68924;DHT22;55961;52.156;20.942;2023-05-27T10:18:54;25.70;27.70
68924;DHT22;55961;52.156;20.942;2023-05-27T10:21:22;25.80;26.10
68924;DHT22;55961;52.156;20.942;2023-05-27T10:31:34;26.00;26.00
68924;DHT22;55961;52.156;20.942;2023-05-27T10:34:04;26.10;25.30
68924;DHT22;55961;52.156;20.942;2023-05-27T10:36:32;26.20;25.40
68924;DHT22;55961;52.156;20.942;2023-05-27T10:39:00;26.30;25.00
68924;DHT22;55961;52.156;20.942;2023-05-27T10:41:27;26.30;24.90
68924;DHT22;55961;52.156;20.942;2023-05-27T10:43:57;26.30;24.70
68924;DHT22;55961;52.156;20.942;2023-05-27T10:46:24;26.40;24.40
68924;DHT22;55961;52.156;20.942;2023-05-27T10:48:50;26.40;23.40
68924;DHT22;55961;52.156;20.942;2023-05-27T10:51:16;26.40;23.90
68924;DHT22;55961;52.156;20.942;2023-05-27T10:53:42;26.50;24.40
68924;DHT22;55961;52.156;20.942;2023-05-27T10:56:08;26.60;25.00
68924;DHT22;55961;52.156;20.942;2023-05-27T10:58:38;26.70;24.60
68924;DHT22;55961;52.156;20.942;2023-05-27T11:01:10;26.70;24.60
68924;DHT22;55961;52.156;20.942;2023-05-27T11:03:42;26.70;24.50
68924;DHT22;55961;52.156;20.942;2023-05-27T11:06:10;26.80;24.00
68924;DHT22;55961;52.156;20.942;2023-05-27T11:08:36;26.90;25.10
68924;DHT22;55961;52.156;20.942;2023-05-27T11:11:06;27.00;24.80
68924;DHT22;55961;52.156;20.942;2023-05-27T11:13:38;27.00;24.50
68924;DHT22;55961;52.156;20.942;2023-05-27T11:16:05;27.00;24.20
68924;DHT22;55961;52.156;20.942;2023-05-27T11:18:39;27.10;25.30
68924;DHT22;55961;52.156;20.942;2023-05-27T11:21:06;27.20;24.50
68924;DHT22;55961;52.156;20.942;2023-05-27T11:28:57;27.20;25.00
68924;DHT22;55961;52.156;20.942;2023-05-27T11:31:30;27.30;25.10
68924;DHT22;55961;52.156;20.942;2023-05-27T11:34:02;27.40;24.80
68924;DHT22;55961;52.156;20.942;2023-05-27T11:36:32;27.40;25.50
68924;DHT22;55961;52.156;20.942;2023-05-27T11:39:00;27.50;24.50
68924;DHT22;55961;52.156;20.942;2023-05-27T11:41:28;27.50;24.50
68924;DHT22;55961;52.156;20.942;2023-05-27T11:46:22;27.50;25.00
68924;DHT22;55961;52.156;20.942;2023-05-27T11:48:48;27.50;24.70
68924;DHT22;55961;52.156;20.942;2023-05-27T11:51:15;27.50;24.20
68924;DHT22;55961;52.156;20.942;2023-05-27T11:53:45;27.60;24.50
68924;DHT22;55961;52.156;20.942;2023-05-27T11:56:11;27.60;25.30
68924;DHT22;55961;52.156;20.942;2023-05-27T11:58:37;27.70;24.00
68924;DHT22;55961;52.156;20.942;2023-05-27T12:01:04;27.70;24.30
68924;DHT22;55961;52.156;20.942;2023-05-27T12:03:32;27.70;23.90
68924;DHT22;55961;52.156;20.942;2023-05-27T12:05:59;27.70;23.90
68924;DHT22;55961;52.156;20.942;2023-05-27T12:08:25;27.80;24.20
68924;DHT22;55961;52.156;20.942;2023-05-27T12:10:51;27.80;23.70
68924;DHT22;55961;52.156;20.942;2023-05-27T12:13:22;27.90;23.30
68924;DHT22;55961;52.156;20.942;2023-05-27T12:15:49;27.80;23.30
68924;DHT22;55961;52.156;20.942;2023-05-27T12:18:16;27.80;24.00
68924;DHT22;55961;52.156;20.942;2023-05-27T12:20:44;27.90;24.40
68924;DHT22;55961;52.156;20.942;2023-05-27T12:23:10;28.00;23.60
68924;DHT22;55961;52.156;20.942;2023-05-27T12:25:36;28.10;23.20
68924;DHT22;55961;52.156;20.942;2023-05-27T12:28:02;28.20;21.40
68924;DHT22;55961;52.156;20.942;2023-05-27T12:30:29;28.10;22.30
68924;DHT22;55961;52.156;20.942;2023-05-27T12:32:54;28.10;23.00
68924;DHT22;55961;52.156;20.942;2023-05-27T12:35:21;28.10;23.00
68924;DHT22;55961;52.156;20.942;2023-05-27T12:37:46;28.10;22.60
68924;DHT22;55961;52.156;20.942;2023-05-27T12:40:12;28.10;21.40
68924;DHT22;55961;52.156;20.942;2023-05-27T12:42:43;28.10;21.10
68924;DHT22;55961;52.156;20.942;2023-05-27T12:45:09;28.00;21.90
68924;DHT22;55961;52.156;20.942;2023-05-27T12:47:36;28.00;21.90
68924;DHT22;55961;52.156;20.942;2023-05-27T12:50:03;28.00;22.60
68924;DHT22;55961;52.156;20.942;2023-05-27T12:52:31;28.00;21.50
68924;DHT22;55961;52.156;20.942;2023-05-27T12:54:59;28.10;21.70
68924;DHT22;55961;52.156;20.942;2023-05-27T12:57:25;28.00;22.20
68924;DHT22;55961;52.156;20.942;2023-05-27T12:59:52;28.10;22.40
68924;DHT22;55961;52.156;20.942;2023-05-27T13:02:18;28.10;22.00
68924;DHT22;55961;52.156;20.942;2023-05-27T13:04:44;28.10;22.60
68924;DHT22;55961;52.156;20.942;2023-05-27T13:07:11;28.20;23.10
68924;DHT22;55961;52.156;20.942;2023-05-27T13:09:39;28.20;22.10
68924;DHT22;55961;52.156;20.942;2023-05-27T13:12:05;28.20;22.50
68924;DHT22;55961;52.156;20.942;2023-05-27T13:14:31;28.10;22.50
68924;DHT22;55961;52.156;20.942;2023-05-27T13:16:57;28.20;22.50
68924;DHT22;55961;52.156;20.942;2023-05-27T13:19:23;28.20;22.70
68924;DHT22;55961;52.156;20.942;2023-05-27T13:21:49;28.20;22.20
68924;DHT22;55961;52.156;20.942;2023-05-27T13:24:15;28.20;22.20
68924;DHT22;55961;52.156;20.942;2023-05-27T13:26:41;28.20;22.80
68924;DHT22;55961;52.156;20.942;2023-05-27T13:29:08;28.20;22.60
68924;DHT22;55961;52.156;20.942;2023-05-27T13:31:34;28.20;22.70
68924;DHT22;55961;52.156;20.942;2023-05-27T13:34:00;28.20;22.70
68924;DHT22;55961;52.156;20.942;2023-05-27T13:36:26;28.20;22.70
68924;DHT22;55961;52.156;20.942;2023-05-27T13:38:52;28.20;22.80
68924;DHT22;55961;52.156;20.942;2023-05-27T13:41:18;28.20;23.20
68924;DHT22;55961;52.156;20.942;2023-05-27T13:43:44;28.20;23.30
68924;DHT22;55961;52.156;20.942;2023-05-27T13:46:10;28.20;23.40
68924;DHT22;55961;52.156;20.942;2023-05-27T13:48:37;28.20;23.30
68924;DHT22;55961;52.156;20.942;2023-05-27T13:51:03;28.30;23.30
68924;DHT22;55961;52.156;20.942;2023-05-27T13:53:29;28.30;23.30
68924;DHT22;55961;52.156;20.942;2023-05-27T13:55:55;28.20;23.20
68924;DHT22;55961;52.156;20.942;2023-05-27T13:58:21;28.20;23.10
68924;DHT22;55961;52.156;20.942;2023-05-27T14:00:46;28.30;22.50
68924;DHT22;55961;52.156;20.942;2023-05-27T14:03:13;28.30;23.10
68924;DHT22;55961;52.156;20.942;2023-05-27T14:05:39;28.30;23.50
68924;DHT22;55961;52.156;20.942;2023-05-27T14:08:06;28.30;22.50
68924;DHT22;55961;52.156;20.942;2023-05-27T14:10:33;28.30;22.60
68924;DHT22;55961;52.156;20.942;2023-05-27T14:13:00;28.30;22.70
68924;DHT22;55961;52.156;20.942;2023-05-27T14:15:26;28.20;22.60
68924;DHT22;55961;52.156;20.942;2023-05-27T14:17:55;28.20;23.20
68924;DHT22;55961;52.156;20.942;2023-05-27T14:20:21;28.20;23.00
68924;DHT22;55961;52.156;20.942;2023-05-27T14:22:48;28.20;23.10
68924;DHT22;55961;52.156;20.942;2023-05-27T14:25:14;28.20;23.70
68924;DHT22;55961;52.156;20.942;2023-05-27T14:27:40;28.10;23.60
68924;DHT22;55961;52.156;20.942;2023-05-27T14:30:07;28.10;23.20
68924;DHT22;55961;52.156;20.942;2023-05-27T14:32:33;28.00;23.10
68924;DHT22;55961;52.156;20.942;2023-05-27T14:34:59;28.00;23.50
68924;DHT22;55961;52.156;20.942;2023-05-27T14:37:25;28.00;23.70
68924;DHT22;55961;52.156;20.942;2023-05-27T14:39:51;28.00;23.60
68924;DHT22;55961;52.156;20.942;2023-05-27T14:42:19;28.00;23.60
68924;DHT22;55961;52.156;20.942;2023-05-27T14:44:45;27.90;23.80
68924;DHT22;55961;52.156;20.942;2023-05-27T14:47:11;27.90;23.30
68924;DHT22;55961;52.156;20.942;2023-05-27T14:49:37;27.90;23.70
68924;DHT22;55961;52.156;20.942;2023-05-27T14:52:04;27.80;23.30
68924;DHT22;55961;52.156;20.942;2023-05-27T14:54:30;27.70;23.40
68924;DHT22;55961;52.156;20.942;2023-05-27T14:56:56;27.70;23.70
68924;DHT22;55961;52.156;20.942;2023-05-27T14:59:22;27.60;24.20
68924;DHT22;55961;52.156;20.942;2023-05-27T15:01:48;27.60;24.00
68924;DHT22;55961;52.156;20.942;2023-05-27T15:04:14;27.50;24.00
68924;DHT22;55961;52.156;20.942;2023-05-27T15:06:41;27.50;24.00
68924;DHT22;55961;52.156;20.942;2023-05-27T15:09:07;27.40;24.40
68924;DHT22;55961;52.156;20.942;2023-05-27T15:11:34;27.40;24.10
68924;DHT22;55961;52.156;20.942;2023-05-27T15:14:02;27.30;24.40
68924;DHT22;55961;52.156;20.942;2023-05-27T15:16:28;27.30;24.20
68924;DHT22;55961;52.156;20.942;2023-05-27T15:18:54;27.10;24.40
68924;DHT22;55961;52.156;20.942;2023-05-27T15:21:21;27.10;24.90
68924;DHT22;55961;52.156;20.942;2023-05-27T15:23:47;27.10;24.90
68924;DHT22;55961;52.156;20.942;2023-05-27T15:26:13;27.00;24.80
68924;DHT22;55961;52.156;20.942;2023-05-27T15:28:39;26.90;24.60
68924;DHT22;55961;52.156;20.942;2023-05-27T15:31:05;26.90;25.10
68924;DHT22;55961;52.156;20.942;2023-05-27T15:33:31;26.80;25.60
68924;DHT22;55961;52.156;20.942;2023-05-27T15:35:57;26.80;24.90
68924;DHT22;55961;52.156;20.942;2023-05-27T15:38:23;26.70;24.90
68924;DHT22;55961;52.156;20.942;2023-05-27T15:40:49;26.70;25.30
68924;DHT22;55961;52.156;20.942;2023-05-27T15:43:15;26.70;25.30
68924;DHT22;55961;52.156;20.942;2023-05-27T15:45:41;26.70;25.20